createdAt,value
2022-10-30T00:01:04.181Z,81.46
2022-10-30T00:03:30.541Z,81.74
2022-10-30T00:05:56.855Z,82.00
2022-10-30T00:08:23.682Z,82.32
2022-10-30T00:10:49.985Z,82.10
2022-10-30T00:13:17.593Z,82.12
2022-10-30T00:15:54.033Z,82.32
2022-10-30T00:18:20.700Z,82.67
2022-10-30T00:20:47.856Z,82.51
2022-10-30T00:23:14.474Z,82.52
2022-10-30T00:25:40.796Z,82.73
2022-10-30T00:28:07.598Z,82.81
2022-10-30T00:30:34.628Z,82.70
2022-10-30T00:33:01.415Z,82.54
2022-10-30T00:35:28.062Z,82.57
2022-10-30T00:37:54.593Z,82.48
2022-10-30T00:40:21.850Z,82.49
2022-10-30T00:42:48.245Z,82.68
2022-10-30T00:45:17.470Z,82.88
2022-10-30T00:47:51.680Z,83.62
2022-10-30T00:50:36.804Z,84.17
2022-10-30T00:53:14.446Z,84.23
2022-10-30T00:55:47.760Z,83.87
2022-10-30T00:58:19.452Z,83.78
2022-10-30T01:00:50.736Z,84.03
2022-10-30T01:03:19.046Z,84.29
2022-10-30T01:05:50.009Z,84.36
2022-10-30T01:08:16.442Z,84.63
2022-10-30T01:10:43.601Z,84.85
2022-10-30T01:13:10.851Z,84.96
2022-10-30T01:15:46.836Z,85.18
2022-10-30T01:18:46.298Z,85.31
2022-10-30T01:21:33.654Z,85.24
2022-10-30T01:24:11.549Z,85.44
2022-10-30T01:27:18.970Z,85.82
2022-10-30T01:29:50.749Z,86.14
2022-10-30T01:32:23.256Z,86.17
2022-10-30T01:35:08.232Z,86.52
2022-10-30T01:37:43.941Z,86.62
2022-10-30T01:40:13.368Z,86.66
2022-10-30T01:42:54.558Z,86.54
2022-10-30T01:45:51.813Z,86.41
2022-10-30T01:48:42.893Z,86.43
2022-10-30T01:51:50.118Z,86.70
2022-10-30T01:54:36.793Z,86.54
2022-10-30T01:57:21.472Z,86.49
2022-10-30T01:59:59.871Z,86.58
2022-10-30T02:02:26.428Z,86.41
2022-10-30T02:04:53.183Z,86.22
2022-10-30T02:07:19.538Z,86.34
2022-10-30T02:09:45.939Z,86.38
2022-10-30T02:12:13.765Z,86.29
2022-10-30T02:14:45.014Z,86.36
2022-10-30T02:17:12.136Z,86.55
2022-10-30T02:19:38.509Z,86.35
2022-10-30T02:22:05.454Z,86.22
2022-10-30T02:24:32.291Z,86.42
2022-10-30T02:26:58.794Z,86.02
2022-10-30T02:29:25.091Z,86.06
2022-10-30T02:31:51.487Z,86.29
2022-10-30T02:34:17.799Z,86.10
2022-10-30T02:36:44.198Z,85.75
2022-10-30T02:39:10.682Z,85.36
2022-10-30T02:41:37.549Z,85.26
2022-10-30T02:44:05.605Z,85.48
2022-10-30T02:46:32.501Z,85.48
2022-10-30T02:48:58.854Z,85.63
2022-10-30T02:51:25.241Z,85.72
2022-10-30T02:53:51.552Z,85.90
2022-10-30T02:56:17.882Z,85.81
2022-10-30T02:58:44.184Z,86.25
2022-10-30T03:01:16.005Z,86.45
2022-10-30T03:03:43.293Z,86.30
2022-10-30T03:06:11.703Z,86.20
2022-10-30T03:08:38.049Z,86.78
2022-10-30T03:11:08.022Z,86.57
2022-10-30T03:13:35.744Z,86.56
2022-10-30T03:16:04.223Z,86.41
2022-10-30T03:18:30.598Z,86.44
2022-10-30T03:21:02.101Z,86.53
2022-10-30T03:23:29.062Z,86.64
2022-10-30T03:25:57.232Z,86.47
2022-10-30T03:28:26.094Z,86.32
2022-10-30T03:30:58.469Z,86.31
2022-10-30T03:33:24.944Z,86.21
2022-10-30T03:35:51.614Z,86.40
2022-10-30T03:38:17.955Z,86.38
2022-10-30T03:40:44.258Z,86.52
2022-10-30T03:43:10.598Z,86.22
2022-10-30T03:45:36.899Z,86.29
2022-10-30T03:48:05.256Z,86.64
2022-10-30T03:50:32.554Z,87.01
2022-10-30T03:52:58.937Z,86.95
2022-10-30T03:55:25.839Z,87.04
2022-10-30T03:57:52.163Z,86.98
2022-10-30T04:00:18.957Z,86.82
2022-10-30T04:02:49.907Z,86.47
2022-10-30T04:05:18.812Z,86.81
2022-10-30T04:07:45.547Z,86.81
2022-10-30T04:10:13.118Z,86.62
2022-10-30T04:12:39.475Z,86.83
2022-10-30T04:15:07.602Z,86.91
2022-10-30T04:17:34.662Z,87.00
2022-10-30T04:20:01.002Z,86.99
2022-10-30T04:22:27.795Z,86.82
2022-10-30T04:24:54.116Z,86.95
2022-10-30T04:27:20.627Z,86.92
2022-10-30T04:29:47.151Z,86.90
2022-10-30T04:32:13.965Z,86.86
2022-10-30T04:34:40.298Z,86.90
2022-10-30T04:37:07.016Z,86.63
2022-10-30T04:39:33.502Z,86.98
2022-10-30T04:41:59.831Z,86.88
2022-10-30T04:44:26.130Z,87.06
2022-10-30T04:46:52.435Z,87.05
2022-10-30T04:49:18.738Z,87.05
2022-10-30T04:51:45.055Z,87.19
2022-10-30T04:54:11.354Z,87.24
2022-10-30T04:56:37.686Z,87.51
2022-10-30T04:59:04.052Z,87.63
2022-10-30T05:01:30.429Z,87.54
2022-10-30T05:03:56.778Z,87.73
2022-10-30T05:06:26.503Z,87.89
2022-10-30T05:08:52.987Z,88.28
2022-10-30T05:11:19.524Z,88.54
2022-10-30T05:13:45.821Z,88.80
2022-10-30T05:16:12.136Z,88.82
2022-10-30T05:18:38.432Z,89.30
2022-10-30T05:21:04.968Z,89.92
2022-10-30T05:23:31.316Z,90.38
2022-10-30T05:26:00.078Z,90.30
2022-10-30T05:28:26.401Z,90.62
2022-10-30T05:30:53.489Z,91.24
2022-10-30T05:33:19.934Z,91.32
2022-10-30T05:35:46.386Z,91.83
2022-10-30T05:38:13.304Z,91.69
2022-10-30T05:40:39.725Z,91.83
2022-10-30T05:43:06.426Z,92.03
2022-10-30T05:45:32.799Z,92.27
2022-10-30T05:48:01.824Z,92.16
2022-10-30T05:50:29.133Z,92.37
2022-10-30T05:52:56.674Z,92.15
2022-10-30T05:55:23.315Z,92.37
2022-10-30T05:57:49.618Z,92.72
2022-10-30T06:00:16.286Z,92.58
2022-10-30T06:02:42.672Z,92.54
2022-10-30T06:05:09.070Z,92.36
2022-10-30T06:07:35.349Z,93.12
2022-10-30T06:10:01.637Z,93.19
2022-10-30T06:12:27.943Z,93.31
2022-10-30T06:14:54.234Z,93.45
2022-10-30T06:17:20.549Z,93.43
2022-10-30T06:19:46.871Z,93.51
2022-10-30T06:22:13.193Z,93.42
2022-10-30T06:24:39.509Z,93.43
2022-10-30T06:27:05.892Z,93.43
2022-10-30T06:29:32.186Z,93.69
2022-10-30T06:32:00.831Z,93.33
2022-10-30T06:34:30.210Z,93.44
2022-10-30T06:36:56.571Z,93.75
2022-10-30T06:39:22.937Z,93.80
2022-10-30T06:41:49.253Z,93.97
2022-10-30T06:44:15.557Z,93.97
2022-10-30T06:46:41.910Z,93.64
2022-10-30T06:49:08.268Z,93.42
2022-10-30T06:51:34.621Z,93.19
2022-10-30T06:54:00.929Z,93.20
2022-10-30T06:56:27.242Z,93.13
2022-10-30T06:58:53.575Z,93.00
2022-10-30T07:01:22.731Z,93.12
2022-10-30T07:03:49.079Z,93.18
2022-10-30T07:06:15.420Z,93.05
2022-10-30T07:08:41.799Z,92.99
2022-10-30T07:11:08.107Z,92.64
2022-10-30T07:13:35.417Z,91.91
2022-10-30T07:16:01.734Z,91.51
2022-10-30T07:18:28.047Z,91.47
2022-10-30T07:20:55.566Z,91.40
2022-10-30T07:23:22.119Z,91.15
2022-10-30T07:25:48.435Z,91.04
2022-10-30T07:28:14.866Z,90.58
2022-10-30T07:30:41.181Z,89.66
2022-10-30T07:33:09.172Z,89.49
2022-10-30T07:35:36.405Z,89.06
2022-10-30T07:38:04.776Z,88.62
2022-10-30T07:40:31.954Z,88.03
2022-10-30T07:43:00.630Z,87.84
2022-10-30T07:45:27.681Z,87.34
2022-10-30T07:47:54.643Z,87.09
2022-10-30T07:50:21.194Z,87.02
2022-10-30T07:52:47.751Z,86.63
2022-10-30T07:55:14.396Z,86.50
2022-10-30T07:57:42.337Z,86.08
2022-10-30T08:00:11.544Z,85.53
2022-10-30T08:02:38.105Z,85.10
2022-10-30T08:05:05.660Z,84.52
2022-10-30T08:07:33.965Z,83.50
2022-10-30T08:10:00.352Z,83.50
2022-10-30T08:12:27.288Z,83.03
2022-10-30T08:14:53.861Z,82.78
2022-10-30T08:17:21.185Z,82.57
2022-10-30T08:19:47.606Z,81.13
2022-10-30T08:22:13.969Z,81.09
2022-10-30T08:24:40.301Z,80.71
2022-10-30T08:27:06.785Z,79.84
2022-10-30T08:29:33.207Z,79.66
2022-10-30T08:31:59.488Z,79.25
2022-10-30T08:34:25.918Z,79.19
2022-10-30T08:36:52.477Z,78.58
2022-10-30T08:39:19.160Z,78.01
2022-10-30T08:41:45.997Z,77.89
2022-10-30T08:44:12.664Z,77.89
2022-10-30T08:46:38.973Z,77.87
2022-10-30T08:49:05.456Z,77.83
2022-10-30T08:51:33.420Z,77.42
2022-10-30T08:54:00.220Z,77.24
2022-10-30T08:56:26.989Z,76.93
2022-10-30T08:58:53.423Z,77.10
2022-10-30T09:01:19.859Z,76.34
2022-10-30T09:03:46.235Z,75.39
2022-10-30T09:06:12.553Z,75.00
2022-10-30T09:08:38.901Z,73.95
2022-10-30T09:11:05.518Z,73.33
2022-10-30T09:13:31.834Z,72.77
2022-10-30T09:16:01.284Z,72.73
2022-10-30T09:18:28.309Z,72.68
2022-10-30T09:20:54.653Z,71.74
2022-10-30T09:23:21.065Z,71.13
2022-10-30T09:25:47.408Z,70.71
2022-10-30T09:28:13.768Z,70.69
2022-10-30T09:30:40.073Z,69.49
2022-10-30T09:33:06.404Z,69.09
2022-10-30T09:35:32.745Z,68.15
2022-10-30T09:37:59.339Z,67.90
2022-10-30T09:40:44.258Z,68.05
2022-10-30T09:43:48.311Z,67.67
2022-10-30T09:46:23.419Z,68.11
2022-10-30T09:49:04.879Z,67.39
2022-10-30T09:51:43.383Z,67.23
2022-10-30T09:54:22.026Z,66.83
2022-10-30T09:56:59.528Z,63.80
2022-10-30T09:59:38.657Z,64.54
2022-10-30T10:02:11.066Z,64.83
2022-10-30T10:04:44.570Z,64.65
2022-10-30T10:07:21.430Z,64.71
2022-10-30T10:09:52.455Z,64.18
2022-10-30T10:12:43.668Z,64.58
2022-10-30T10:15:24.950Z,65.50
2022-10-30T10:17:51.798Z,63.86
2022-10-30T10:20:32.059Z,64.58
2022-10-30T10:23:02.235Z,64.51
2022-10-30T10:25:30.951Z,63.61
2022-10-30T10:28:36.808Z,63.63
2022-10-30T10:31:12.320Z,62.63
2022-10-30T10:33:57.827Z,62.92
2022-10-30T10:36:35.087Z,63.79
2022-10-30T10:39:30.256Z,63.47
2022-10-30T10:42:12.092Z,61.97
2022-10-30T10:44:46.493Z,62.41
2022-10-30T10:47:12.757Z,62.29
2022-10-30T10:49:52.868Z,61.52
2022-10-30T10:52:24.032Z,60.21
2022-10-30T10:55:00.845Z,59.51
2022-10-30T10:57:36.534Z,60.43
2022-10-30T11:00:20.707Z,60.96
2022-10-30T11:03:13.608Z,60.27
2022-10-30T11:05:51.494Z,60.79
2022-10-30T11:08:33.111Z,60.62
2022-10-30T11:11:02.074Z,61.64
2022-10-30T11:13:35.876Z,61.52
2022-10-30T11:16:05.098Z,61.71
2022-10-30T11:18:32.034Z,62.27
2022-10-30T11:21:23.721Z,62.22
2022-10-30T11:23:50.826Z,61.62
2022-10-30T11:26:17.087Z,63.02
2022-10-30T11:29:12.185Z,62.15
2022-10-30T11:31:41.193Z,60.76
2022-10-30T11:34:19.409Z,61.49
2022-10-30T11:36:51.088Z,62.19
2022-10-30T11:39:18.426Z,61.37
2022-10-30T11:41:56.749Z,62.02
2022-10-30T11:44:28.805Z,62.07
2022-10-30T11:46:55.952Z,62.26
2022-10-30T11:49:33.405Z,62.08
2022-10-30T11:52:00.428Z,61.36
2022-10-30T11:54:27.232Z,61.61
2022-10-30T11:56:54.572Z,62.27
2022-10-30T11:59:23.818Z,60.58
2022-10-30T12:02:21.659Z,60.79
2022-10-30T12:04:50.254Z,61.17
2022-10-30T12:07:24.312Z,63.27
2022-10-30T12:09:51.009Z,63.46
2022-10-30T12:12:22.114Z,63.33
2022-10-30T12:14:48.562Z,63.11
2022-10-30T12:17:17.737Z,63.51
2022-10-30T12:19:50.410Z,62.77
2022-10-30T12:22:32.628Z,62.82
2022-10-30T12:25:02.801Z,63.09
2022-10-30T12:27:32.143Z,62.53
2022-10-30T12:30:10.015Z,62.13
2022-10-30T12:32:50.239Z,61.95
2022-10-30T12:35:37.180Z,62.68
2022-10-30T12:38:09.606Z,63.15
2022-10-30T12:40:42.697Z,63.30
2022-10-30T12:43:26.094Z,64.16
2022-10-30T12:46:01.453Z,62.67
2022-10-30T12:48:41.662Z,63.34
2022-10-30T12:51:24.245Z,62.06
2022-10-30T12:54:14.945Z,61.85
2022-10-30T12:56:45.880Z,62.06
2022-10-30T12:59:32.978Z,63.41
2022-10-30T13:02:23.945Z,62.62
2022-10-30T13:04:57.255Z,62.80
2022-10-30T13:07:27.994Z,62.85
2022-10-30T13:10:18.769Z,63.89
2022-10-30T13:12:48.538Z,64.82
2022-10-30T13:15:22.329Z,64.74
2022-10-30T13:17:49.601Z,63.77
2022-10-30T13:20:16.374Z,64.17
2022-10-30T13:22:49.029Z,63.51
2022-10-30T13:25:24.992Z,64.19
2022-10-30T13:28:01.788Z,64.58
2022-10-30T13:30:38.982Z,64.62
2022-10-30T13:33:22.508Z,64.09
2022-10-30T13:36:03.040Z,65.15
2022-10-30T13:38:42.231Z,64.87
2022-10-30T13:41:37.881Z,63.98
2022-10-30T13:44:22.158Z,63.83
2022-10-30T13:46:58.572Z,63.43
2022-10-30T13:50:00.126Z,63.50
2022-10-30T13:52:29.655Z,64.94
2022-10-30T13:55:14.307Z,64.98
2022-10-30T13:57:52.562Z,64.69
2022-10-30T14:00:22.014Z,64.28
2022-10-30T14:03:25.918Z,65.38
2022-10-30T14:05:58.123Z,64.92
2022-10-30T14:08:40.401Z,64.44
2022-10-30T14:11:10.778Z,64.78
2022-10-30T14:13:57.114Z,65.58
2022-10-30T14:16:39.945Z,65.66
2022-10-30T14:19:11.294Z,66.07
2022-10-30T14:21:42.990Z,66.70
2022-10-30T14:24:14.237Z,66.44
2022-10-30T14:26:49.993Z,66.55
2022-10-30T14:29:34.107Z,67.26
2022-10-30T14:32:12.968Z,67.71
2022-10-30T14:34:57.081Z,67.92
2022-10-30T14:37:23.351Z,68.78
2022-10-30T14:39:51.534Z,69.41
2022-10-30T14:42:40.904Z,70.25
2022-10-30T14:45:28.154Z,70.57
2022-10-30T14:47:56.703Z,70.60
2022-10-30T14:50:49.035Z,70.40
2022-10-30T14:53:46.014Z,70.69
2022-10-30T14:59:12.258Z,71.39
2022-10-30T15:01:44.881Z,71.82
2022-10-30T15:04:26.268Z,71.73
2022-10-30T15:07:11.450Z,72.15
2022-10-30T15:09:48.762Z,73.15
2022-10-30T15:12:24.270Z,73.34
2022-10-30T15:15:00.007Z,73.06
2022-10-30T15:17:33.957Z,73.46
2022-10-30T15:20:04.686Z,74.03
2022-10-30T15:22:33.361Z,74.88
2022-10-30T15:25:01.674Z,74.88
2022-10-30T15:27:29.558Z,75.15
2022-10-30T15:30:00.577Z,75.68
2022-10-30T15:32:27.214Z,76.27
2022-10-30T15:35:01.705Z,76.78
2022-10-30T15:37:28.736Z,77.06
2022-10-30T15:40:16.879Z,77.36
2022-10-30T15:42:43.961Z,77.79
2022-10-30T15:45:18.132Z,78.20
2022-10-30T15:48:06.688Z,78.71
2022-10-30T15:50:39.588Z,79.03
2022-10-30T15:53:06.794Z,79.85
2022-10-30T15:55:33.473Z,79.99
2022-10-30T15:58:13.286Z,80.52
2022-10-30T16:00:39.864Z,81.30
2022-10-30T16:03:16.334Z,81.69
2022-10-30T16:05:42.835Z,82.60
2022-10-30T16:08:15.888Z,82.64
2022-10-30T16:10:45.266Z,83.02
2022-10-30T16:13:21.761Z,83.22
2022-10-30T16:15:48.493Z,83.68
2022-10-30T16:18:28.520Z,83.83
2022-10-30T16:20:58.159Z,84.20
2022-10-30T16:23:24.577Z,84.52
2022-10-30T16:25:55.837Z,84.94
2022-10-30T16:28:28.210Z,85.54
2022-10-30T16:30:58.714Z,85.79
2022-10-30T16:33:28.023Z,86.13
2022-10-30T16:35:55.943Z,86.16
2022-10-30T16:38:24.546Z,86.56
2022-10-30T16:40:51.469Z,86.88
2022-10-30T16:43:29.583Z,86.99
2022-10-30T16:46:24.513Z,87.82
2022-10-30T16:48:58.172Z,87.95
2022-10-30T16:51:24.650Z,87.83
2022-10-30T16:53:52.513Z,88.06
2022-10-30T16:56:29.147Z,88.33
2022-10-30T16:59:13.470Z,88.60
2022-10-30T17:01:40.120Z,89.03
2022-10-30T17:04:06.684Z,89.19
2022-10-30T17:06:43.016Z,89.14
2022-10-30T17:09:23.959Z,89.49
2022-10-30T17:12:09.306Z,89.71
2022-10-30T17:14:46.933Z,90.02
2022-10-30T17:17:42.476Z,89.92
2022-10-30T17:20:22.686Z,90.86
2022-10-30T17:23:05.910Z,90.62
2022-10-30T17:25:37.678Z,90.64
2022-10-30T17:28:05.120Z,90.82
2022-10-30T17:30:34.339Z,91.66
2022-10-30T17:33:03.508Z,92.43
2022-10-30T17:35:30.190Z,92.33
2022-10-30T17:37:59.740Z,92.50
2022-10-30T17:40:29.262Z,92.73
2022-10-30T17:42:55.597Z,92.78
2022-10-30T17:45:22.282Z,93.01
2022-10-30T17:47:48.602Z,92.96
2022-10-30T17:50:14.984Z,93.01
2022-10-30T17:52:41.283Z,93.34
2022-10-30T17:55:22.397Z,93.25
2022-10-30T17:57:48.764Z,93.49
2022-10-30T18:00:15.295Z,93.53
2022-10-30T18:02:41.607Z,93.53
2022-10-30T18:05:17.994Z,94.15
2022-10-30T18:07:44.674Z,94.00
2022-10-30T18:10:12.018Z,94.02
2022-10-30T18:12:38.405Z,93.98
2022-10-30T18:15:27.505Z,94.25
2022-10-30T18:17:54.227Z,94.51
2022-10-30T18:20:21.289Z,94.91
2022-10-30T18:22:47.784Z,94.90
2022-10-30T18:25:22.184Z,94.86
2022-10-30T18:27:48.500Z,95.21
2022-10-30T18:30:16.136Z,95.42
2022-10-30T18:32:42.674Z,95.41
2022-10-30T18:35:13.764Z,95.66
2022-10-30T18:37:40.315Z,95.63
2022-10-30T18:40:07.182Z,95.74
2022-10-30T18:42:33.485Z,95.80
2022-10-30T18:44:59.809Z,96.09
2022-10-30T18:47:26.109Z,95.95
2022-10-30T18:49:52.540Z,96.07
2022-10-30T18:52:19.227Z,96.11
2022-10-30T18:54:45.571Z,95.88
2022-10-30T18:57:11.942Z,95.87
2022-10-30T18:59:38.278Z,95.93
2022-10-30T19:02:23.488Z,96.55
2022-10-30T19:04:49.811Z,97.20
2022-10-30T19:07:16.135Z,97.67
2022-10-30T19:09:42.520Z,97.92
2022-10-30T19:12:10.443Z,98.09
2022-10-30T19:14:36.791Z,97.97
2022-10-30T19:17:03.144Z,98.07
2022-10-30T19:19:29.527Z,98.07
2022-10-30T19:21:55.876Z,98.34
2022-10-30T19:24:22.188Z,98.33
2022-10-30T19:26:48.589Z,98.28
2022-10-30T19:29:14.890Z,98.38
2022-10-30T19:31:41.196Z,98.32
2022-10-30T19:34:07.519Z,98.15
2022-10-30T19:36:36.811Z,97.85
2022-10-30T19:39:14.336Z,97.43
2022-10-30T19:41:40.721Z,97.43
2022-10-30T19:44:07.067Z,97.36
2022-10-30T19:46:33.660Z,97.12
2022-10-30T19:49:00.642Z,96.56
2022-10-30T19:51:28.504Z,95.87
2022-10-30T19:53:55.077Z,95.27
2022-10-30T19:56:21.727Z,94.68
2022-10-30T19:58:48.225Z,94.56
2022-10-30T20:01:14.777Z,94.49
2022-10-30T20:03:41.237Z,94.54
2022-10-30T20:06:10.372Z,94.60
2022-10-30T20:08:36.737Z,94.90
2022-10-30T20:11:03.077Z,95.17
2022-10-30T20:13:29.837Z,94.71
2022-10-30T20:15:58.964Z,93.95
2022-10-30T20:18:30.428Z,93.14
2022-10-30T20:21:00.584Z,92.10
2022-10-30T20:23:27.746Z,92.49
2022-10-30T20:26:02.915Z,92.48
2022-10-30T20:28:37.888Z,92.50
2022-10-30T20:31:05.435Z,92.67
2022-10-30T20:33:31.839Z,92.70
2022-10-30T20:35:58.208Z,93.34
2022-10-30T20:38:26.771Z,93.51
2022-10-30T20:40:53.786Z,94.12
2022-10-30T20:43:24.863Z,94.47
2022-10-30T20:45:51.278Z,94.29
2022-10-30T20:48:17.599Z,94.42
2022-10-30T20:50:49.137Z,94.10
2022-10-30T20:53:17.041Z,93.82
2022-10-30T20:55:43.604Z,93.87
2022-10-30T20:58:10.041Z,94.05
2022-10-30T21:00:36.450Z,94.22
2022-10-30T21:03:04.760Z,94.08
2022-10-30T21:05:43.790Z,93.95
2022-10-30T21:08:12.499Z,93.87
2022-10-30T21:10:39.814Z,93.73
2022-10-30T21:13:08.913Z,93.86
2022-10-30T21:15:41.130Z,93.64
2022-10-30T21:18:08.430Z,93.56
2022-10-30T21:20:35.889Z,93.27
2022-10-30T21:23:02.249Z,93.23
2022-10-30T21:25:28.691Z,93.39
2022-10-30T21:27:58.582Z,92.90
2022-10-30T21:30:25.112Z,93.13
2022-10-30T21:32:51.585Z,93.11
2022-10-30T21:35:18.296Z,93.39
2022-10-30T21:37:44.706Z,93.74
2022-10-30T21:40:11.781Z,93.35
2022-10-30T21:42:38.134Z,93.24
2022-10-30T21:45:05.437Z,93.01
2022-10-30T21:47:31.846Z,93.06
2022-10-30T21:49:58.268Z,92.73
2022-10-30T21:52:24.621Z,92.78
2022-10-30T21:54:50.999Z,92.61
2022-10-30T21:57:17.333Z,92.20
2022-10-30T21:59:43.674Z,92.31
2022-10-30T22:02:13.902Z,91.97
2022-10-30T22:04:40.319Z,91.54
2022-10-30T22:07:06.747Z,91.10
2022-10-30T22:09:33.089Z,90.78
2022-10-30T22:11:59.383Z,90.47
2022-10-30T22:14:25.769Z,90.42
2022-10-30T22:16:52.180Z,90.35
2022-10-30T22:19:18.578Z,90.48
2022-10-30T22:21:44.943Z,90.62
2022-10-30T22:24:11.313Z,90.69
2022-10-30T22:26:37.717Z,90.49
2022-10-30T22:29:04.047Z,90.15
2022-10-30T22:31:30.540Z,89.80
2022-10-30T22:33:59.400Z,89.75
2022-10-30T22:36:28.366Z,88.98
2022-10-30T22:39:10.670Z,88.79
2022-10-30T22:41:38.350Z,88.81
2022-10-30T22:44:07.105Z,88.63
2022-10-30T22:46:33.674Z,88.68
2022-10-30T22:49:00.184Z,88.86
2022-10-30T22:51:26.921Z,89.40
2022-10-30T22:53:58.479Z,89.22
2022-10-30T22:56:26.991Z,89.13
2022-10-30T22:58:53.659Z,89.04
2022-10-30T23:01:28.857Z,89.20
2022-10-30T23:03:56.955Z,89.25
2022-10-30T23:06:24.105Z,89.17
2022-10-30T23:08:55.439Z,89.32
2022-10-30T23:11:22.503Z,89.51
2022-10-30T23:13:49.523Z,89.65
2022-10-30T23:16:18.235Z,89.99
2022-10-30T23:18:45.573Z,90.63
2022-10-30T23:21:14.315Z,91.10
2022-10-30T23:23:42.333Z,91.21
2022-10-30T23:26:13.534Z,91.40
2022-10-30T23:28:39.964Z,91.89
2022-10-30T23:31:15.809Z,92.12
2022-10-30T23:33:42.138Z,92.53
2022-10-30T23:36:08.597Z,92.68
2022-10-30T23:38:34.906Z,93.00
2022-10-30T23:41:01.193Z,93.16
2022-10-30T23:43:27.517Z,93.14
2022-10-30T23:45:53.842Z,92.96
2022-10-30T23:48:20.177Z,93.02
2022-10-30T23:50:46.486Z,93.20
2022-10-30T23:53:12.793Z,93.26
2022-10-30T23:55:39.149Z,93.20
2022-10-30T23:58:05.561Z,93.18
